sensor_id;sensor_type;location;lat;lon;timestamp;P1;durP1;ratioP1;P2;durP2;ratioP2
64595;SDS011;51003;51.628;6.670;2023-06-26T07:47:35;9.40;;;5.50;;
64595;SDS011;51003;51.628;6.670;2023-06-26T07:50:01;13.83;;;5.30;;
64595;SDS011;51003;51.628;6.670;2023-06-26T07:52:27;9.73;;;4.87;;
64595;SDS011;51003;51.628;6.670;2023-06-26T07:54:52;9.07;;;5.20;;
64595;SDS011;51003;51.628;6.670;2023-06-26T07:57:18;13.47;;;4.90;;
64595;SDS011;51003;51.628;6.670;2023-06-26T07:59:44;6.73;;;4.43;;
64595;SDS011;51003;51.628;6.670;2023-06-26T08:02:10;8.67;;;4.50;;
64595;SDS011;51003;51.628;6.670;2023-06-26T08:04:35;6.83;;;4.37;;
64595;SDS011;51003;51.628;6.670;2023-06-26T08:07:01;11.07;;;4.50;;
64595;SDS011;51003;51.628;6.670;2023-06-26T08:09:28;9.00;;;4.40;;
64595;SDS011;51003;51.628;6.670;2023-06-26T08:11:54;9.00;;;4.60;;
64595;SDS011;51003;51.628;6.670;2023-06-26T08:14:20;7.60;;;4.70;;
64595;SDS011;51003;51.628;6.670;2023-06-26T08:16:46;8.60;;;4.80;;
64595;SDS011;51003;51.628;6.670;2023-06-26T08:19:13;8.50;;;4.50;;
64595;SDS011;51003;51.628;6.670;2023-06-26T08:21:39;9.90;;;4.80;;
64595;SDS011;51003;51.628;6.670;2023-06-26T08:24:05;7.77;;;4.13;;
64595;SDS011;51003;51.628;6.670;2023-06-26T08:26:33;6.03;;;4.03;;
64595;SDS011;51003;51.628;6.670;2023-06-26T08:28:59;9.40;;;4.43;;
64595;SDS011;51003;51.628;6.670;2023-06-26T08:31:25;4.93;;;3.70;;
64595;SDS011;51003;51.628;6.670;2023-06-26T08:33:50;11.93;;;4.63;;
64595;SDS011;51003;51.628;6.670;2023-06-26T08:36:16;5.50;;;3.90;;
64595;SDS011;51003;51.628;6.670;2023-06-26T08:38:42;6.37;;;4.13;;
64595;SDS011;51003;51.628;6.670;2023-06-26T08:41:08;6.83;;;4.17;;
64595;SDS011;51003;51.628;6.670;2023-06-26T08:43:34;4.90;;;3.80;;
64595;SDS011;51003;51.628;6.670;2023-06-26T08:46:00;5.80;;;3.80;;
64595;SDS011;51003;51.628;6.670;2023-06-26T08:48:26;12.50;;;4.03;;
64595;SDS011;51003;51.628;6.670;2023-06-26T08:50:52;9.30;;;4.50;;
64595;SDS011;51003;51.628;6.670;2023-06-26T08:56:02;4.93;;;3.80;;
64595;SDS011;51003;51.628;6.670;2023-06-26T08:58:28;3.77;;;3.40;;
64595;SDS011;51003;51.628;6.670;2023-06-26T09:00:54;6.23;;;3.50;;
64595;SDS011;51003;51.628;6.670;2023-06-26T09:03:21;4.87;;;3.90;;
64595;SDS011;51003;51.628;6.670;2023-06-26T09:05:47;6.10;;;3.90;;
64595;SDS011;51003;51.628;6.670;2023-06-26T09:08:12;4.07;;;3.60;;
64595;SDS011;51003;51.628;6.670;2023-06-26T09:10:40;4.83;;;3.53;;
64595;SDS011;51003;51.628;6.670;2023-06-26T09:13:06;5.00;;;4.00;;
64595;SDS011;51003;51.628;6.670;2023-06-26T09:15:38;3.70;;;3.40;;
64595;SDS011;51003;51.628;6.670;2023-06-26T09:18:04;4.43;;;3.57;;
64595;SDS011;51003;51.628;6.670;2023-06-26T09:20:31;5.63;;;3.90;;
64595;SDS011;51003;51.628;6.670;2023-06-26T09:23:00;4.67;;;4.23;;
64595;SDS011;51003;51.628;6.670;2023-06-26T09:25:27;4.03;;;3.33;;
64595;SDS011;51003;51.628;6.670;2023-06-26T09:27:53;6.03;;;3.80;;
64595;SDS011;51003;51.628;6.670;2023-06-26T09:30:20;5.90;;;3.63;;
64595;SDS011;51003;51.628;6.670;2023-06-26T09:32:45;4.10;;;3.10;;
64595;SDS011;51003;51.628;6.670;2023-06-26T09:35:11;5.80;;;3.13;;
64595;SDS011;51003;51.628;6.670;2023-06-26T09:37:36;4.63;;;3.50;;
64595;SDS011;51003;51.628;6.670;2023-06-26T09:40:02;3.87;;;2.87;;
64595;SDS011;51003;51.628;6.670;2023-06-26T09:42:29;5.73;;;3.80;;
64595;SDS011;51003;51.628;6.670;2023-06-26T09:44:54;6.43;;;3.40;;
64595;SDS011;51003;51.628;6.670;2023-06-26T09:47:20;3.33;;;3.03;;
64595;SDS011;51003;51.628;6.670;2023-06-26T09:49:46;3.93;;;3.63;;
64595;SDS011;51003;51.628;6.670;2023-06-26T09:52:15;4.93;;;3.57;;
64595;SDS011;51003;51.628;6.670;2023-06-26T09:54:44;3.40;;;3.10;;
64595;SDS011;51003;51.628;6.670;2023-06-26T09:57:13;4.90;;;3.37;;
64595;SDS011;51003;51.628;6.670;2023-06-26T10:06:07;3.83;;;3.53;;
64595;SDS011;51003;51.628;6.670;2023-06-26T10:18:13;3.87;;;3.43;;
64595;SDS011;51003;51.628;6.670;2023-06-26T10:20:41;3.53;;;3.10;;
64595;SDS011;51003;51.628;6.670;2023-06-26T10:23:07;4.07;;;3.30;;
64595;SDS011;51003;51.628;6.670;2023-06-26T10:25:34;3.10;;;2.90;;
64595;SDS011;51003;51.628;6.670;2023-06-26T10:28:02;4.37;;;2.60;;
64595;SDS011;51003;51.628;6.670;2023-06-26T10:30:29;3.60;;;2.57;;
64595;SDS011;51003;51.628;6.670;2023-06-26T10:32:58;2.90;;;2.47;;
64595;SDS011;51003;51.628;6.670;2023-06-26T10:35:25;2.40;;;2.20;;
64595;SDS011;51003;51.628;6.670;2023-06-26T10:37:51;2.30;;;2.20;;
64595;SDS011;51003;51.628;6.670;2023-06-26T10:40:26;2.60;;;2.50;;
64595;SDS011;51003;51.628;6.670;2023-06-26T10:42:51;2.07;;;1.97;;
64595;SDS011;51003;51.628;6.670;2023-06-26T10:45:31;4.10;;;2.43;;
64595;SDS011;51003;51.628;6.670;2023-06-26T10:47:58;2.60;;;2.40;;
64595;SDS011;51003;51.628;6.670;2023-06-26T10:50:27;3.90;;;2.90;;
64595;SDS011;51003;51.628;6.670;2023-06-26T11:06:30;1.93;;;1.83;;
64595;SDS011;51003;51.628;6.670;2023-06-26T11:11:54;2.17;;;2.07;;
64595;SDS011;51003;51.628;6.670;2023-06-26T11:14:30;2.50;;;1.90;;
64595;SDS011;51003;51.628;6.670;2023-06-26T11:16:56;1.80;;;1.70;;
64595;SDS011;51003;51.628;6.670;2023-06-26T11:19:25;2.33;;;1.97;;
64595;SDS011;51003;51.628;6.670;2023-06-26T11:21:52;1.80;;;1.70;;
64595;SDS011;51003;51.628;6.670;2023-06-26T11:24:23;2.00;;;1.90;;
64595;SDS011;51003;51.628;6.670;2023-06-26T11:26:48;1.97;;;1.70;;
64595;SDS011;51003;51.628;6.670;2023-06-26T11:29:14;1.97;;;1.80;;
64595;SDS011;51003;51.628;6.670;2023-06-26T11:31:40;1.77;;;1.63;;
64595;SDS011;51003;51.628;6.670;2023-06-26T11:34:07;1.53;;;1.43;;
64595;SDS011;51003;51.628;6.670;2023-06-26T11:36:35;4.83;;;1.43;;
64595;SDS011;51003;51.628;6.670;2023-06-26T11:39:02;2.60;;;1.70;;
64595;SDS011;51003;51.628;6.670;2023-06-26T11:41:30;1.80;;;1.70;;
64595;SDS011;51003;51.628;6.670;2023-06-26T11:44:00;1.50;;;1.40;;
64595;SDS011;51003;51.628;6.670;2023-06-26T11:46:29;2.37;;;1.70;;
64595;SDS011;51003;51.628;6.670;2023-06-26T11:48:55;1.73;;;1.63;;
64595;SDS011;51003;51.628;6.670;2023-06-26T11:51:20;1.80;;;1.70;;
64595;SDS011;51003;51.628;6.670;2023-06-26T11:53:46;4.40;;;1.70;;
64595;SDS011;51003;51.628;6.670;2023-06-26T11:56:16;1.70;;;1.60;;
64595;SDS011;51003;51.628;6.670;2023-06-26T11:58:58;2.57;;;1.50;;
64595;SDS011;51003;51.628;6.670;2023-06-26T12:01:26;1.60;;;1.50;;
64595;SDS011;51003;51.628;6.670;2023-06-26T12:03:57;1.63;;;1.53;;
64595;SDS011;51003;51.628;6.670;2023-06-26T12:06:24;4.80;;;1.60;;
64595;SDS011;51003;51.628;6.670;2023-06-26T12:08:49;1.70;;;1.60;;
64595;SDS011;51003;51.628;6.670;2023-06-26T12:11:15;3.80;;;1.60;;
64595;SDS011;51003;51.628;6.670;2023-06-26T12:13:40;1.87;;;1.67;;
64595;SDS011;51003;51.628;6.670;2023-06-26T12:16:06;1.80;;;1.60;;
64595;SDS011;51003;51.628;6.670;2023-06-26T12:18:34;2.43;;;1.83;;
64595;SDS011;51003;51.628;6.670;2023-06-26T12:21:02;1.60;;;1.47;;
64595;SDS011;51003;51.628;6.670;2023-06-26T12:23:35;1.73;;;1.20;;
64595;SDS011;51003;51.628;6.670;2023-06-26T12:26:20;2.20;;;1.47;;
64595;SDS011;51003;51.628;6.670;2023-06-26T12:28:46;2.87;;;1.40;;
64595;SDS011;51003;51.628;6.670;2023-06-26T12:31:12;1.67;;;1.23;;
64595;SDS011;51003;51.628;6.670;2023-06-26T12:33:42;1.37;;;1.27;;
64595;SDS011;51003;51.628;6.670;2023-06-26T12:36:12;1.87;;;1.70;;
64595;SDS011;51003;51.628;6.670;2023-06-26T12:38:38;1.80;;;1.70;;
64595;SDS011;51003;51.628;6.670;2023-06-26T12:41:03;1.40;;;1.30;;
64595;SDS011;51003;51.628;6.670;2023-06-26T12:43:32;1.50;;;1.40;;
64595;SDS011;51003;51.628;6.670;2023-06-26T12:46:04;1.30;;;1.20;;
64595;SDS011;51003;51.628;6.670;2023-06-26T12:48:39;1.40;;;1.30;;
64595;SDS011;51003;51.628;6.670;2023-06-26T12:51:17;2.70;;;1.70;;
64595;SDS011;51003;51.628;6.670;2023-06-26T12:53:43;1.40;;;1.30;;
64595;SDS011;51003;51.628;6.670;2023-06-26T12:56:09;3.03;;;1.50;;
64595;SDS011;51003;51.628;6.670;2023-06-26T12:58:35;1.40;;;1.30;;
64595;SDS011;51003;51.628;6.670;2023-06-26T13:01:06;1.67;;;1.40;;
64595;SDS011;51003;51.628;6.670;2023-06-26T13:03:38;1.63;;;1.50;;
64595;SDS011;51003;51.628;6.670;2023-06-26T13:06:03;1.40;;;1.30;;
64595;SDS011;51003;51.628;6.670;2023-06-26T13:08:29;3.30;;;1.60;;
64595;SDS011;51003;51.628;6.670;2023-06-26T13:10:55;1.60;;;1.50;;
64595;SDS011;51003;51.628;6.670;2023-06-26T13:13:24;1.57;;;1.47;;
64595;SDS011;51003;51.628;6.670;2023-06-26T13:16:10;1.40;;;1.30;;
64595;SDS011;51003;51.628;6.670;2023-06-26T13:18:35;1.97;;;1.53;;
64595;SDS011;51003;51.628;6.670;2023-06-26T13:21:01;1.90;;;1.80;;
64595;SDS011;51003;51.628;6.670;2023-06-26T13:23:26;2.50;;;1.50;;
64595;SDS011;51003;51.628;6.670;2023-06-26T13:25:52;1.50;;;1.40;;
64595;SDS011;51003;51.628;6.670;2023-06-26T13:28:17;1.53;;;1.43;;
64595;SDS011;51003;51.628;6.670;2023-06-26T13:30:43;1.73;;;1.60;;
64595;SDS011;51003;51.628;6.670;2023-06-26T13:33:08;2.93;;;1.67;;
64595;SDS011;51003;51.628;6.670;2023-06-26T13:35:35;2.93;;;1.60;;
64595;SDS011;51003;51.628;6.670;2023-06-26T13:38:01;1.60;;;1.50;;
64595;SDS011;51003;51.628;6.670;2023-06-26T13:40:26;1.93;;;1.57;;
64595;SDS011;51003;51.628;6.670;2023-06-26T13:42:52;2.07;;;1.63;;
64595;SDS011;51003;51.628;6.670;2023-06-26T13:45:18;1.60;;;1.50;;
64595;SDS011;51003;51.628;6.670;2023-06-26T13:47:43;2.93;;;2.10;;
64595;SDS011;51003;51.628;6.670;2023-06-26T13:50:09;1.73;;;1.63;;
64595;SDS011;51003;51.628;6.670;2023-06-26T13:52:35;2.60;;;1.70;;
64595;SDS011;51003;51.628;6.670;2023-06-26T13:55:01;2.23;;;1.70;;
64595;SDS011;51003;51.628;6.670;2023-06-26T13:57:29;5.23;;;1.50;;
64595;SDS011;51003;51.628;6.670;2023-06-26T13:59:55;1.93;;;1.63;;
64595;SDS011;51003;51.628;6.670;2023-06-26T14:02:21;2.07;;;1.67;;
64595;SDS011;51003;51.628;6.670;2023-06-26T14:04:47;2.00;;;1.80;;
64595;SDS011;51003;51.628;6.670;2023-06-26T14:07:12;2.60;;;1.53;;
64595;SDS011;51003;51.628;6.670;2023-06-26T14:09:38;3.40;;;1.77;;
64595;SDS011;51003;51.628;6.670;2023-06-26T14:12:03;2.23;;;1.53;;
64595;SDS011;51003;51.628;6.670;2023-06-26T14:14:29;1.97;;;1.87;;
64595;SDS011;51003;51.628;6.670;2023-06-26T14:16:55;1.80;;;1.70;;
64595;SDS011;51003;51.628;6.670;2023-06-26T14:19:20;2.60;;;1.83;;
64595;SDS011;51003;51.628;6.670;2023-06-26T14:21:46;2.40;;;1.83;;
64595;SDS011;51003;51.628;6.670;2023-06-26T14:24:12;2.50;;;1.80;;
64595;SDS011;51003;51.628;6.670;2023-06-26T14:26:37;2.43;;;2.20;;
64595;SDS011;51003;51.628;6.670;2023-06-26T14:29:03;2.43;;;1.93;;
64595;SDS011;51003;51.628;6.670;2023-06-26T14:31:29;2.60;;;1.87;;
64595;SDS011;51003;51.628;6.670;2023-06-26T14:33:55;3.00;;;1.90;;
64595;SDS011;51003;51.628;6.670;2023-06-26T14:36:20;7.53;;;2.13;;
64595;SDS011;51003;51.628;6.670;2023-06-26T14:38:46;2.43;;;2.20;;
64595;SDS011;51003;51.628;6.670;2023-06-26T14:41:11;5.17;;;1.50;;
64595;SDS011;51003;51.628;6.670;2023-06-26T14:43:40;1.70;;;1.60;;
64595;SDS011;51003;51.628;6.670;2023-06-26T14:46:06;2.07;;;1.80;;
64595;SDS011;51003;51.628;6.670;2023-06-26T14:48:31;1.90;;;1.70;;
64595;SDS011;51003;51.628;6.670;2023-06-26T14:50:56;3.27;;;1.70;;
64595;SDS011;51003;51.628;6.670;2023-06-26T14:53:22;2.07;;;1.90;;
64595;SDS011;51003;51.628;6.670;2023-06-26T14:55:47;1.63;;;1.53;;
64595;SDS011;51003;51.628;6.670;2023-06-26T14:58:12;2.43;;;1.80;;
64595;SDS011;51003;51.628;6.670;2023-06-26T15:00:38;1.80;;;1.70;;
64595;SDS011;51003;51.628;6.670;2023-06-26T15:03:06;1.90;;;1.60;;
64595;SDS011;51003;51.628;6.670;2023-06-26T15:05:32;3.53;;;1.50;;
64595;SDS011;51003;51.628;6.670;2023-06-26T15:07:57;1.67;;;1.57;;
64595;SDS011;51003;51.628;6.670;2023-06-26T15:10:22;2.40;;;1.53;;
64595;SDS011;51003;51.628;6.670;2023-06-26T15:12:48;1.77;;;1.50;;
64595;SDS011;51003;51.628;6.670;2023-06-26T15:15:14;1.60;;;1.50;;
64595;SDS011;51003;51.628;6.670;2023-06-26T15:17:40;1.43;;;1.23;;
64595;SDS011;51003;51.628;6.670;2023-06-26T15:20:05;1.73;;;1.60;;
64595;SDS011;51003;51.628;6.670;2023-06-26T15:22:33;1.87;;;1.70;;
64595;SDS011;51003;51.628;6.670;2023-06-26T15:28:34;3.30;;;1.47;;
64595;SDS011;51003;51.628;6.670;2023-06-26T15:34:28;2.27;;;1.30;;
64595;SDS011;51003;51.628;6.670;2023-06-26T15:40:17;2.50;;;1.43;;
64595;SDS011;51003;51.628;6.670;2023-06-26T15:42:46;1.80;;;1.50;;
64595;SDS011;51003;51.628;6.670;2023-06-26T15:45:12;2.70;;;1.33;;
64595;SDS011;51003;51.628;6.670;2023-06-26T15:47:38;1.60;;;1.50;;
64595;SDS011;51003;51.628;6.670;2023-06-26T15:50:04;3.37;;;1.60;;
64595;SDS011;51003;51.628;6.670;2023-06-26T15:52:30;3.10;;;1.67;;
64595;SDS011;51003;51.628;6.670;2023-06-26T15:54:56;1.90;;;1.30;;
64595;SDS011;51003;51.628;6.670;2023-06-26T15:57:21;1.50;;;1.40;;
64595;SDS011;51003;51.628;6.670;2023-06-26T15:59:46;1.40;;;1.30;;
64595;SDS011;51003;51.628;6.670;2023-06-26T16:02:12;2.70;;;1.40;;
64595;SDS011;51003;51.628;6.670;2023-06-26T16:04:38;2.17;;;1.43;;
64595;SDS011;51003;51.628;6.670;2023-06-26T16:07:03;2.17;;;1.47;;
64595;SDS011;51003;51.628;6.670;2023-06-26T16:09:28;3.23;;;1.40;;
64595;SDS011;51003;51.628;6.670;2023-06-26T16:11:54;2.60;;;1.40;;
64595;SDS011;51003;51.628;6.670;2023-06-26T16:14:19;2.30;;;1.40;;
64595;SDS011;51003;51.628;6.670;2023-06-26T16:16:44;2.40;;;1.60;;
64595;SDS011;51003;51.628;6.670;2023-06-26T16:19:10;1.60;;;1.40;;
64595;SDS011;51003;51.628;6.670;2023-06-26T16:21:35;1.43;;;1.33;;
64595;SDS011;51003;51.628;6.670;2023-06-26T16:24:00;5.83;;;1.70;;
64595;SDS011;51003;51.628;6.670;2023-06-26T16:26:26;1.73;;;1.57;;
64595;SDS011;51003;51.628;6.670;2023-06-26T16:28:51;1.50;;;1.40;;
64595;SDS011;51003;51.628;6.670;2023-06-26T16:31:17;1.90;;;1.63;;
64595;SDS011;51003;51.628;6.670;2023-06-26T16:33:43;1.57;;;1.47;;
64595;SDS011;51003;51.628;6.670;2023-06-26T16:36:08;2.70;;;1.57;;
64595;SDS011;51003;51.628;6.670;2023-06-26T16:38:33;1.90;;;1.47;;
64595;SDS011;51003;51.628;6.670;2023-06-26T16:40:59;2.07;;;1.47;;
64595;SDS011;51003;51.628;6.670;2023-06-26T16:43:24;4.47;;;1.40;;
64595;SDS011;51003;51.628;6.670;2023-06-26T16:45:49;1.43;;;1.33;;
64595;SDS011;51003;51.628;6.670;2023-06-26T16:48:15;3.00;;;1.50;;
64595;SDS011;51003;51.628;6.670;2023-06-26T16:50:40;1.70;;;1.30;;
64595;SDS011;51003;51.628;6.670;2023-06-26T16:53:06;4.40;;;1.63;;
64595;SDS011;51003;51.628;6.670;2023-06-26T16:55:31;2.20;;;1.43;;
64595;SDS011;51003;51.628;6.670;2023-06-26T16:57:56;1.40;;;1.30;;
64595;SDS011;51003;51.628;6.670;2023-06-26T17:00:22;1.87;;;1.20;;
64595;SDS011;51003;51.628;6.670;2023-06-26T17:02:47;1.60;;;1.30;;
64595;SDS011;51003;51.628;6.670;2023-06-26T17:05:12;1.50;;;1.40;;
64595;SDS011;51003;51.628;6.670;2023-06-26T17:07:38;1.57;;;1.47;;
64595;SDS011;51003;51.628;6.670;2023-06-26T17:10:04;1.97;;;1.70;;
64595;SDS011;51003;51.628;6.670;2023-06-26T17:12:30;1.73;;;1.40;;
64595;SDS011;51003;51.628;6.670;2023-06-26T17:14:56;1.60;;;1.50;;
64595;SDS011;51003;51.628;6.670;2023-06-26T17:17:21;1.80;;;1.70;;
64595;SDS011;51003;51.628;6.670;2023-06-26T17:19:47;1.50;;;1.40;;
64595;SDS011;51003;51.628;6.670;2023-06-26T17:22:13;4.17;;;1.53;;
64595;SDS011;51003;51.628;6.670;2023-06-26T17:24:39;1.67;;;1.40;;
64595;SDS011;51003;51.628;6.670;2023-06-26T17:27:08;4.73;;;1.40;;
64595;SDS011;51003;51.628;6.670;2023-06-26T17:29:34;1.57;;;1.17;;
64595;SDS011;51003;51.628;6.670;2023-06-26T17:31:59;2.70;;;1.50;;
64595;SDS011;51003;51.628;6.670;2023-06-26T17:34:25;1.87;;;1.77;;
64595;SDS011;51003;51.628;6.670;2023-06-26T17:36:50;3.13;;;1.40;;
64595;SDS011;51003;51.628;6.670;2023-06-26T17:39:15;1.53;;;1.40;;
64595;SDS011;51003;51.628;6.670;2023-06-26T17:41:41;1.37;;;1.27;;
64595;SDS011;51003;51.628;6.670;2023-06-26T17:44:24;1.30;;;1.20;;
64595;SDS011;51003;51.628;6.670;2023-06-26T17:46:53;1.87;;;1.30;;
64595;SDS011;51003;51.628;6.670;2023-06-26T17:49:19;3.93;;;1.50;;
64595;SDS011;51003;51.628;6.670;2023-06-26T17:51:45;3.20;;;1.87;;
64595;SDS011;51003;51.628;6.670;2023-06-26T17:54:11;1.67;;;1.50;;
64595;SDS011;51003;51.628;6.670;2023-06-26T17:56:37;1.60;;;1.50;;
64595;SDS011;51003;51.628;6.670;2023-06-26T17:59:04;4.33;;;1.60;;
64595;SDS011;51003;51.628;6.670;2023-06-26T18:01:29;1.73;;;1.60;;
64595;SDS011;51003;51.628;6.670;2023-06-26T18:03:54;2.37;;;1.40;;
64595;SDS011;51003;51.628;6.670;2023-06-26T18:06:20;1.10;;;1.10;;
64595;SDS011;51003;51.628;6.670;2023-06-26T18:08:46;1.40;;;1.30;;
64595;SDS011;51003;51.628;6.670;2023-06-26T18:11:11;3.27;;;1.70;;
64595;SDS011;51003;51.628;6.670;2023-06-26T18:16:41;1.50;;;1.40;;
64595;SDS011;51003;51.628;6.670;2023-06-26T18:19:06;2.67;;;1.53;;
64595;SDS011;51003;51.628;6.670;2023-06-26T18:21:32;4.67;;;1.50;;
64595;SDS011;51003;51.628;6.670;2023-06-26T18:23:58;2.27;;;1.50;;
64595;SDS011;51003;51.628;6.670;2023-06-26T18:26:24;1.97;;;1.50;;
64595;SDS011;51003;51.628;6.670;2023-06-26T18:28:50;1.60;;;1.50;;
64595;SDS011;51003;51.628;6.670;2023-06-26T18:31:17;3.10;;;1.30;;
64595;SDS011;51003;51.628;6.670;2023-06-26T18:33:43;1.47;;;1.37;;
64595;SDS011;51003;51.628;6.670;2023-06-26T18:36:09;1.63;;;1.43;;
64595;SDS011;51003;51.628;6.670;2023-06-26T18:38:38;1.30;;;1.20;;
64595;SDS011;51003;51.628;6.670;2023-06-26T18:41:04;1.90;;;1.80;;
64595;SDS011;51003;51.628;6.670;2023-06-26T18:43:30;1.70;;;1.33;;
64595;SDS011;51003;51.628;6.670;2023-06-26T18:45:56;1.50;;;1.40;;
64595;SDS011;51003;51.628;6.670;2023-06-26T18:48:21;1.83;;;1.40;;
64595;SDS011;51003;51.628;6.670;2023-06-26T18:50:47;3.93;;;1.40;;
64595;SDS011;51003;51.628;6.670;2023-06-26T18:53:12;1.57;;;1.47;;
64595;SDS011;51003;51.628;6.670;2023-06-26T18:55:38;2.70;;;1.50;;
64595;SDS011;51003;51.628;6.670;2023-06-26T18:58:03;1.57;;;1.47;;
64595;SDS011;51003;51.628;6.670;2023-06-26T19:00:29;1.70;;;1.60;;
64595;SDS011;51003;51.628;6.670;2023-06-26T19:02:56;2.33;;;1.53;;
64595;SDS011;51003;51.628;6.670;2023-06-26T19:05:21;1.43;;;1.33;;
64595;SDS011;51003;51.628;6.670;2023-06-26T19:07:47;1.60;;;1.40;;
64595;SDS011;51003;51.628;6.670;2023-06-26T19:10:13;1.97;;;1.67;;
64595;SDS011;51003;51.628;6.670;2023-06-26T19:12:43;1.67;;;1.57;;
64595;SDS011;51003;51.628;6.670;2023-06-26T19:15:09;1.40;;;1.30;;
64595;SDS011;51003;51.628;6.670;2023-06-26T19:17:35;2.53;;;1.57;;
64595;SDS011;51003;51.628;6.670;2023-06-26T19:20:00;1.70;;;1.60;;
64595;SDS011;51003;51.628;6.670;2023-06-26T19:22:26;1.70;;;1.60;;
64595;SDS011;51003;51.628;6.670;2023-06-26T19:24:56;1.50;;;1.40;;
64595;SDS011;51003;51.628;6.670;2023-06-26T19:27:21;1.53;;;1.43;;
64595;SDS011;51003;51.628;6.670;2023-06-26T19:29:47;1.43;;;1.33;;
64595;SDS011;51003;51.628;6.670;2023-06-26T19:32:13;2.27;;;1.80;;
64595;SDS011;51003;51.628;6.670;2023-06-26T19:34:38;3.40;;;1.43;;
64595;SDS011;51003;51.628;6.670;2023-06-26T19:37:04;2.03;;;1.60;;
64595;SDS011;51003;51.628;6.670;2023-06-26T19:39:30;2.80;;;1.80;;
64595;SDS011;51003;51.628;6.670;2023-06-26T19:41:55;3.87;;;1.80;;
64595;SDS011;51003;51.628;6.670;2023-06-26T19:44:21;1.60;;;1.50;;
64595;SDS011;51003;51.628;6.670;2023-06-26T19:46:47;4.87;;;1.50;;
64595;SDS011;51003;51.628;6.670;2023-06-26T19:49:12;1.83;;;1.70;;
64595;SDS011;51003;51.628;6.670;2023-06-26T19:51:38;2.03;;;1.40;;
64595;SDS011;51003;51.628;6.670;2023-06-26T19:54:03;1.47;;;1.37;;
64595;SDS011;51003;51.628;6.670;2023-06-26T19:56:29;1.60;;;1.50;;
64595;SDS011;51003;51.628;6.670;2023-06-26T19:58:55;5.20;;;1.53;;
64595;SDS011;51003;51.628;6.670;2023-06-26T20:01:21;2.70;;;1.77;;
64595;SDS011;51003;51.628;6.670;2023-06-26T20:03:47;3.23;;;1.57;;
64595;SDS011;51003;51.628;6.670;2023-06-26T20:06:13;2.60;;;1.57;;
64595;SDS011;51003;51.628;6.670;2023-06-26T20:08:39;2.93;;;1.53;;
64595;SDS011;51003;51.628;6.670;2023-06-26T20:11:05;2.93;;;1.80;;
64595;SDS011;51003;51.628;6.670;2023-06-26T20:13:31;1.60;;;1.50;;
64595;SDS011;51003;51.628;6.670;2023-06-26T20:15:56;1.80;;;1.70;;
64595;SDS011;51003;51.628;6.670;2023-06-26T20:18:22;3.97;;;1.90;;
64595;SDS011;51003;51.628;6.670;2023-06-26T20:20:49;1.83;;;1.60;;
64595;SDS011;51003;51.628;6.670;2023-06-26T20:23:16;2.00;;;1.67;;
64595;SDS011;51003;51.628;6.670;2023-06-26T20:25:41;2.87;;;1.60;;
64595;SDS011;51003;51.628;6.670;2023-06-26T20:28:07;7.57;;;1.73;;
64595;SDS011;51003;51.628;6.670;2023-06-26T20:30:32;2.50;;;1.93;;
64595;SDS011;51003;51.628;6.670;2023-06-26T20:32:58;2.00;;;1.87;;
64595;SDS011;51003;51.628;6.670;2023-06-26T20:35:24;5.10;;;2.00;;
64595;SDS011;51003;51.628;6.670;2023-06-26T20:37:49;4.10;;;2.00;;
64595;SDS011;51003;51.628;6.670;2023-06-26T20:40:15;1.80;;;1.70;;
64595;SDS011;51003;51.628;6.670;2023-06-26T20:42:40;3.20;;;2.17;;
64595;SDS011;51003;51.628;6.670;2023-06-26T20:45:07;3.10;;;1.90;;
64595;SDS011;51003;51.628;6.670;2023-06-26T20:47:33;2.00;;;1.70;;
64595;SDS011;51003;51.628;6.670;2023-06-26T20:50:06;1.67;;;1.57;;
64595;SDS011;51003;51.628;6.670;2023-06-26T20:52:34;9.37;;;1.80;;
64595;SDS011;51003;51.628;6.670;2023-06-26T20:55:03;2.93;;;1.90;;
64595;SDS011;51003;51.628;6.670;2023-06-26T20:57:31;3.03;;;1.90;;
64595;SDS011;51003;51.628;6.670;2023-06-26T20:59:57;1.80;;;1.70;;
64595;SDS011;51003;51.628;6.670;2023-06-26T21:02:22;2.33;;;1.77;;
64595;SDS011;51003;51.628;6.670;2023-06-26T21:04:48;2.50;;;2.30;;
64595;SDS011;51003;51.628;6.670;2023-06-26T21:07:14;4.50;;;2.00;;
64595;SDS011;51003;51.628;6.670;2023-06-26T21:09:40;3.30;;;2.03;;
64595;SDS011;51003;51.628;6.670;2023-06-26T21:12:05;2.30;;;2.10;;
64595;SDS011;51003;51.628;6.670;2023-06-26T21:14:32;2.30;;;2.10;;
64595;SDS011;51003;51.628;6.670;2023-06-26T21:16:58;2.23;;;2.13;;
64595;SDS011;51003;51.628;6.670;2023-06-26T21:19:23;2.33;;;2.10;;
64595;SDS011;51003;51.628;6.670;2023-06-26T21:21:49;3.53;;;1.80;;
64595;SDS011;51003;51.628;6.670;2023-06-26T21:24:15;2.53;;;2.33;;
64595;SDS011;51003;51.628;6.670;2023-06-26T21:26:40;2.20;;;1.93;;
64595;SDS011;51003;51.628;6.670;2023-06-26T21:29:06;2.83;;;2.27;;
64595;SDS011;51003;51.628;6.670;2023-06-26T21:31:31;4.10;;;1.90;;
64595;SDS011;51003;51.628;6.670;2023-06-26T21:33:57;2.40;;;2.20;;
64595;SDS011;51003;51.628;6.670;2023-06-26T21:36:23;6.10;;;2.13;;
64595;SDS011;51003;51.628;6.670;2023-06-26T21:38:48;2.73;;;1.77;;
64595;SDS011;51003;51.628;6.670;2023-06-26T21:41:14;3.60;;;2.40;;
64595;SDS011;51003;51.628;6.670;2023-06-26T21:43:40;5.50;;;2.50;;
64595;SDS011;51003;51.628;6.670;2023-06-26T21:46:05;2.23;;;2.00;;
64595;SDS011;51003;51.628;6.670;2023-06-26T21:48:31;2.93;;;2.30;;
64595;SDS011;51003;51.628;6.670;2023-06-26T21:50:56;2.03;;;1.80;;
64595;SDS011;51003;51.628;6.670;2023-06-26T21:53:22;1.90;;;1.80;;
64595;SDS011;51003;51.628;6.670;2023-06-26T21:55:47;2.23;;;2.13;;
64595;SDS011;51003;51.628;6.670;2023-06-26T21:58:13;4.67;;;2.00;;
64595;SDS011;51003;51.628;6.670;2023-06-26T22:00:38;2.67;;;1.80;;
64595;SDS011;51003;51.628;6.670;2023-06-26T22:03:04;2.27;;;1.90;;
64595;SDS011;51003;51.628;6.670;2023-06-26T22:05:30;3.53;;;1.87;;
64595;SDS011;51003;51.628;6.670;2023-06-26T22:07:56;2.23;;;2.03;;
64595;SDS011;51003;51.628;6.670;2023-06-26T22:10:22;2.10;;;1.90;;
64595;SDS011;51003;51.628;6.670;2023-06-26T22:12:48;3.10;;;1.77;;
64595;SDS011;51003;51.628;6.670;2023-06-26T22:15:13;2.50;;;1.80;;
64595;SDS011;51003;51.628;6.670;2023-06-26T22:17:51;2.87;;;1.73;;
64595;SDS011;51003;51.628;6.670;2023-06-26T22:20:19;2.57;;;2.37;;
64595;SDS011;51003;51.628;6.670;2023-06-26T22:22:45;3.20;;;2.27;;
64595;SDS011;51003;51.628;6.670;2023-06-26T22:25:11;3.30;;;2.40;;
64595;SDS011;51003;51.628;6.670;2023-06-26T22:27:41;2.50;;;2.30;;
64595;SDS011;51003;51.628;6.670;2023-06-26T22:30:07;2.43;;;2.20;;
64595;SDS011;51003;51.628;6.670;2023-06-26T22:32:33;4.03;;;2.50;;
64595;SDS011;51003;51.628;6.670;2023-06-26T22:34:59;2.67;;;2.47;;
64595;SDS011;51003;51.628;6.670;2023-06-26T22:37:24;3.53;;;2.70;;
64595;SDS011;51003;51.628;6.670;2023-06-26T22:39:50;2.60;;;2.40;;
64595;SDS011;51003;51.628;6.670;2023-06-26T22:42:16;3.47;;;2.50;;
64595;SDS011;51003;51.628;6.670;2023-06-26T22:44:41;3.97;;;2.40;;
64595;SDS011;51003;51.628;6.670;2023-06-26T22:47:07;4.13;;;2.30;;
64595;SDS011;51003;51.628;6.670;2023-06-26T22:49:33;5.23;;;2.47;;
64595;SDS011;51003;51.628;6.670;2023-06-26T22:52:00;3.30;;;2.43;;
64595;SDS011;51003;51.628;6.670;2023-06-26T22:54:25;3.20;;;2.33;;
64595;SDS011;51003;51.628;6.670;2023-06-26T22:56:51;3.33;;;2.60;;
64595;SDS011;51003;51.628;6.670;2023-06-26T22:59:16;2.77;;;2.50;;
64595;SDS011;51003;51.628;6.670;2023-06-26T23:01:42;3.47;;;2.60;;
64595;SDS011;51003;51.628;6.670;2023-06-26T23:04:08;4.23;;;2.47;;
64595;SDS011;51003;51.628;6.670;2023-06-26T23:06:33;2.97;;;2.77;;
64595;SDS011;51003;51.628;6.670;2023-06-26T23:08:59;2.83;;;2.60;;
64595;SDS011;51003;51.628;6.670;2023-06-26T23:11:24;2.80;;;2.50;;
64595;SDS011;51003;51.628;6.670;2023-06-26T23:13:51;6.00;;;2.50;;
64595;SDS011;51003;51.628;6.670;2023-06-26T23:16:17;2.87;;;2.60;;
64595;SDS011;51003;51.628;6.670;2023-06-26T23:18:42;3.47;;;2.70;;